Time;durP1;ratioP1;P1;durP2;ratioP2;P2;SDS_P1;SDS_P2;PMS_P1;PMS_P2;Temp;Humidity;BMP_temperature;BMP_pressure;BME280_temperature;BME280_humidity;BME280_pressure;Samples;Min_cycle;Max_cycle;Signal;HPM_P1;HPM_P2
2020/12/27 00:02:07;;;;;;;2.92;2.05;;;1.60;99.90;;;;;;5016130;28;20264;-71
2020/12/27 00:04:33;;;;;;;5.25;1.98;;;1.60;99.90;;;;;;5016128;28;20211;-71
2020/12/27 00:07:04;;;;;;;2.00;1.75;;;1.60;99.90;;;;;;5016002;28;20312;-70
2020/12/27 00:09:30;;;;;;;6.15;2.10;;;1.50;99.90;;;;;;5016110;28;20205;-71
2020/12/27 00:11:56;;;;;;;4.38;2.22;;;1.50;99.90;;;;;;5016196;28;20208;-70
2020/12/27 00:14:23;;;;;;;2.33;1.73;;;1.50;99.90;;;;;;5016212;28;20215;-71
2020/12/27 00:16:50;;;;;;;2.70;1.80;;;1.40;99.90;;;;;;5015915;28;20762;-71
2020/12/27 00:19:16;;;;;;;2.35;1.52;;;1.30;99.90;;;;;;5015762;28;20205;-70
2020/12/27 00:21:43;;;;;;;2.90;1.65;;;1.30;99.90;;;;;;5015907;28;20221;-71
2020/12/27 00:24:09;;;;;;;1.95;1.52;;;1.40;99.90;;;;;;5015886;28;20563;-70
2020/12/27 00:26:36;;;;;;;3.45;2.20;;;1.30;99.90;;;;;;5015730;28;20311;-70
2020/12/27 00:29:03;;;;;;;6.03;2.35;;;1.30;99.90;;;;;;5015757;28;20549;-71
2020/12/27 00:31:29;;;;;;;9.73;2.55;;;1.20;99.90;;;;;;5015596;28;20247;-70
2020/12/27 00:33:56;;;;;;;3.30;1.58;;;1.30;99.90;;;;;;5015752;28;20201;-71
2020/12/27 00:36:23;;;;;;;6.97;1.85;;;1.40;99.90;;;;;;5015204;28;20221;-71
2020/12/27 00:38:49;;;;;;;5.10;2.25;;;1.50;99.90;;;;;;5015394;28;20219;-71
2020/12/27 00:41:22;;;;;;;4.63;1.73;;;1.60;99.90;;;;;;5015329;28;20225;-71
2020/12/27 00:43:49;;;;;;;2.92;1.75;;;1.50;99.90;;;;;;5015417;28;20207;-70
2020/12/27 00:46:16;;;;;;;4.00;2.17;;;1.50;99.90;;;;;;5015109;28;20725;-71
2020/12/27 00:48:42;;;;;;;3.00;1.60;;;1.40;99.90;;;;;;5015426;28;20235;-70
2020/12/27 00:51:09;;;;;;;4.00;2.08;;;1.40;99.90;;;;;;5015354;28;20201;-71
2020/12/27 00:53:36;;;;;;;5.80;1.90;;;1.30;99.90;;;;;;5015331;28;20291;-70
2020/12/27 00:56:02;;;;;;;2.55;2.00;;;1.30;99.90;;;;;;5015148;28;20316;-70
2020/12/27 00:58:31;;;;;;;2.65;1.83;;;1.20;99.90;;;;;;5015511;28;20211;-70
2020/12/27 01:00:58;;;;;;;3.10;2.05;;;1.20;99.90;;;;;;5014989;28;20236;-71
2020/12/27 01:03:24;;;;;;;3.50;2.10;;;1.20;99.90;;;;;;5015217;28;20209;-71
2020/12/27 01:05:50;;;;;;;2.88;1.60;;;1.20;99.90;;;;;;5014772;28;20738;-71
2020/12/27 01:08:18;;;;;;;5.50;2.58;;;1.20;99.90;;;;;;5014890;28;20209;-71
2020/12/27 01:10:44;;;;;;;5.55;2.30;;;1.20;99.90;;;;;;5015059;28;20216;-70
2020/12/27 01:13:11;;;;;;;2.63;2.30;;;1.10;99.90;;;;;;5014975;28;20296;-71
2020/12/27 01:15:39;;;;;;;4.32;2.25;;;1.10;99.90;;;;;;5014638;28;20225;-71
2020/12/27 01:18:05;;;;;;;2.35;1.58;;;1.20;99.90;;;;;;5014690;28;20713;-70
2020/12/27 01:20:32;;;;;;;2.88;2.05;;;1.20;99.90;;;;;;5014854;28;20655;-71
2020/12/27 01:22:58;;;;;;;2.17;1.48;;;1.10;99.90;;;;;;5014612;28;20319;-71
2020/12/27 01:25:25;;;;;;;3.67;2.28;;;1.20;99.90;;;;;;5014532;28;20221;-70
2020/12/27 01:27:52;;;;;;;1.90;1.48;;;1.00;99.90;;;;;;5015012;28;20250;-70
2020/12/27 01:30:18;;;;;;;3.22;2.38;;;0.90;99.90;;;;;;5014546;28;20308;-71
2020/12/27 01:32:44;;;;;;;2.65;2.08;;;1.00;99.90;;;;;;5014837;28;20291;-70
2020/12/27 01:35:11;;;;;;;3.60;2.00;;;0.90;99.90;;;;;;5014465;28;20770;-71
2020/12/27 01:37:37;;;;;;;3.13;1.95;;;0.90;99.90;;;;;;5014629;28;20295;-71
2020/12/27 01:40:03;;;;;;;4.55;1.48;;;0.90;99.90;;;;;;5013973;28;20745;-70
2020/12/27 01:42:31;;;;;;;2.28;1.80;;;0.90;99.90;;;;;;5014518;28;20721;-70
2020/12/27 01:44:57;;;;;;;1.67;1.55;;;0.90;99.90;;;;;;5014217;28;20311;-71
2020/12/27 01:47:24;;;;;;;2.13;1.75;;;1.00;99.90;;;;;;5014675;28;20287;-71
2020/12/27 01:49:51;;;;;;;5.65;2.08;;;1.00;99.90;;;;;;5014400;28;20302;-70
2020/12/27 01:52:18;;;;;;;2.80;1.95;;;1.00;99.90;;;;;;5014149;28;20719;-71
2020/12/27 01:54:44;;;;;;;3.83;1.92;;;1.00;99.90;;;;;;5013979;28;20205;-71
2020/12/27 01:57:13;;;;;;;4.38;1.73;;;1.00;99.90;;;;;;5014276;28;20228;-71
2020/12/27 01:59:40;;;;;;;6.03;1.60;;;1.00;99.90;;;;;;5014269;28;20300;-70
2020/12/27 02:02:07;;;;;;;3.30;1.60;;;1.00;99.90;;;;;;5014094;28;20220;-70
2020/12/27 02:04:35;;;;;;;3.35;1.95;;;1.00;99.90;;;;;;5013820;28;20291;-71
2020/12/27 02:07:03;;;;;;;3.63;2.10;;;1.00;99.90;;;;;;5013802;28;20232;-71
2020/12/27 02:09:30;;;;;;;3.00;2.03;;;0.90;99.90;;;;;;5014110;28;20205;-71
2020/12/27 02:12:04;;;;;;;3.67;1.63;;;1.00;99.90;;;;;;5014070;28;20201;-71
2020/12/27 02:14:31;;;;;;;4.78;2.40;;;0.90;99.90;;;;;;5013783;28;20203;-69
2020/12/27 02:16:58;;;;;;;4.95;2.33;;;0.90;99.90;;;;;;5014009;28;20694;-71
2020/12/27 02:19:24;;;;;;;2.00;1.60;;;0.80;99.90;;;;;;5014131;28;20211;-70
2020/12/27 02:21:51;;;;;;;4.35;1.67;;;0.80;99.90;;;;;;5013905;28;20610;-70
2020/12/27 02:24:18;;;;;;;2.65;1.73;;;0.80;99.90;;;;;;5013913;28;20208;-71
2020/12/27 02:26:58;;;;;;;2.08;1.65;;;0.80;99.90;;;;;;5013489;28;20339;-70
2020/12/27 02:29:24;;;;;;;5.18;2.00;;;0.70;99.90;;;;;;5013927;28;20295;-70
2020/12/27 02:31:52;;;;;;;3.50;1.30;;;0.80;99.90;;;;;;5013565;28;20274;-71
2020/12/27 02:34:19;;;;;;;2.50;1.40;;;0.80;99.90;;;;;;5013841;28;20564;-70
2020/12/27 02:36:45;;;;;;;5.07;1.85;;;0.80;99.90;;;;;;5013709;28;20315;-70
2020/12/27 02:39:12;;;;;;;3.67;1.92;;;0.70;99.90;;;;;;5013754;28;20212;-70
2020/12/27 02:41:40;;;;;;;1.90;1.50;;;0.80;99.90;;;;;;5013603;28;20331;-71
2020/12/27 02:44:08;;;;;;;3.80;2.63;;;0.80;99.90;;;;;;5013682;28;20574;-70
2020/12/27 02:46:35;;;;;;;3.03;1.45;;;0.80;99.90;;;;;;5013531;28;20224;-70
2020/12/27 02:49:01;;;;;;;4.25;2.08;;;0.70;99.90;;;;;;5013549;28;20667;-70
2020/12/27 02:51:28;;;;;;;2.78;2.00;;;0.70;99.90;;;;;;5014905;28;20576;-70
2020/12/27 02:53:57;;;;;;;3.00;1.92;;;0.80;99.90;;;;;;5017601;28;20612;-71
2020/12/27 02:56:24;;;;;;;2.38;1.73;;;0.70;99.90;;;;;;5017131;28;20319;-70
2020/12/27 02:58:54;;;;;;;10.25;2.05;;;0.70;99.90;;;;;;5017331;28;20208;-70
2020/12/27 03:01:20;;;;;;;1.98;1.75;;;0.70;99.90;;;;;;5017382;28;20204;-70
2020/12/27 03:03:47;;;;;;;2.58;1.92;;;0.70;99.90;;;;;;5017474;28;20299;-71
2020/12/27 03:06:13;;;;;;;2.30;1.80;;;0.60;99.90;;;;;;5016973;28;20228;-70
2020/12/27 03:08:40;;;;;;;3.38;1.70;;;0.60;99.90;;;;;;5017384;28;20296;-70
2020/12/27 03:11:07;;;;;;;4.70;2.40;;;0.60;99.90;;;;;;5017131;28;20205;-71
2020/12/27 03:13:34;;;;;;;2.28;1.83;;;0.60;99.90;;;;;;5017540;28;20201;-71
2020/12/27 03:16:02;;;;;;;4.50;2.45;;;0.60;99.90;;;;;;5017045;28;20231;-70
2020/12/27 03:18:29;;;;;;;2.80;2.00;;;0.60;99.90;;;;;;5017171;28;20219;-70
2020/12/27 03:20:55;;;;;;;2.95;2.55;;;0.60;99.90;;;;;;5017309;28;20292;-70
2020/12/27 03:23:22;;;;;;;7.55;2.63;;;0.50;99.90;;;;;;5017433;28;20288;-71
2020/12/27 03:25:48;;;;;;;4.22;2.88;;;0.50;99.90;;;;;;5016943;28;20681;-70
2020/12/27 03:28:15;;;;;;;3.40;2.58;;;0.40;99.90;;;;;;5017012;28;20205;-71
2020/12/27 03:30:42;;;;;;;2.95;2.58;;;0.30;99.90;;;;;;5016676;28;20235;-70
2020/12/27 03:33:10;;;;;;;4.20;2.28;;;0.30;99.90;;;;;;5016961;28;20601;-70
2020/12/27 03:35:37;;;;;;;1.92;1.70;;;0.40;99.90;;;;;;5016496;28;20228;-71
2020/12/27 03:38:03;;;;;;;4.40;2.42;;;0.40;99.90;;;;;;5016822;28;20212;-70
2020/12/27 03:40:29;;;;;;;2.90;2.13;;;0.40;99.90;;;;;;5016803;28;20295;-70
2020/12/27 03:42:56;;;;;;;4.00;1.80;;;0.40;99.90;;;;;;5016716;28;20319;-70
2020/12/27 03:45:22;;;;;;;3.53;2.05;;;0.40;99.90;;;;;;5016378;28;20319;-70
2020/12/27 03:47:48;;;;;;;6.40;2.33;;;0.40;99.90;;;;;;5016722;28;20211;-70
2020/12/27 03:50:16;;;;;;;2.50;2.20;;;0.40;99.90;;;;;;5016573;28;20207;-70
2020/12/27 03:52:42;;;;;;;8.63;2.67;;;0.30;99.90;;;;;;5016290;28;20292;-70
2020/12/27 03:55:08;;;;;;;2.78;1.50;;;0.20;99.90;;;;;;5016222;28;20635;-70
2020/12/27 03:57:34;;;;;;;3.42;1.65;;;0.20;99.90;;;;;;5016252;28;20232;-70
2020/12/27 04:00:03;;;;;;;3.72;1.95;;;0.30;99.90;;;;;;5016375;28;20219;-70
2020/12/27 04:02:29;;;;;;;4.50;2.22;;;0.40;99.90;;;;;;5015679;28;20583;-70
2020/12/27 04:04:56;;;;;;;3.55;1.50;;;0.50;99.90;;;;;;5016007;28;20208;-70
2020/12/27 04:07:23;;;;;;;5.32;2.40;;;0.50;99.90;;;;;;5016014;28;20701;-70
2020/12/27 04:09:49;;;;;;;2.40;2.10;;;0.50;99.90;;;;;;5016057;28;20685;-70
2020/12/27 04:12:16;;;;;;;4.72;2.30;;;0.50;99.90;;;;;;5016075;28;20614;-70
2020/12/27 04:14:42;;;;;;;4.85;2.00;;;0.50;99.90;;;;;;5015969;28;20211;-70
2020/12/27 04:17:08;;;;;;;5.63;2.45;;;0.50;99.90;;;;;;5015742;28;20315;-70
2020/12/27 04:19:35;;;;;;;4.18;2.15;;;0.50;99.90;;;;;;5015976;28;20205;-70
2020/12/27 04:22:01;;;;;;;4.10;2.03;;;0.40;99.90;;;;;;5015964;28;20625;-70
2020/12/27 04:24:28;;;;;;;5.15;2.70;;;0.30;99.90;;;;;;5015955;28;20293;-70
2020/12/27 04:26:54;;;;;;;2.20;1.80;;;0.30;99.90;;;;;;5015459;28;20315;-70
2020/12/27 04:29:21;;;;;;;3.58;2.30;;;0.20;99.90;;;;;;5015856;28;20303;-70
2020/12/27 04:31:51;;;;;;;3.45;1.70;;;0.20;99.90;;;;;;5015879;28;20657;-70
2020/12/27 04:34:17;;;;;;;5.90;2.55;;;0.00;99.90;;;;;;5015963;28;20214;-70
2020/12/27 04:36:43;;;;;;;3.22;2.13;;;0.00;99.90;;;;;;5015537;28;20316;-70
2020/12/27 04:39:10;;;;;;;3.67;1.85;;;0.10;99.90;;;;;;5015693;28;20201;-70
2020/12/27 04:41:37;;;;;;;6.13;3.35;;;0.20;99.90;;;;;;5015434;28;20251;-70
2020/12/27 04:44:04;;;;;;;6.75;2.85;;;0.30;99.90;;;;;;5015591;28;20216;-70
2020/12/27 04:46:31;;;;;;;5.10;2.45;;;0.30;99.90;;;;;;5015298;28;20607;-70
2020/12/27 04:48:58;;;;;;;3.78;2.85;;;0.50;99.90;;;;;;5015497;28;20355;-70
2020/12/27 04:51:26;;;;;;;6.60;2.60;;;0.50;99.90;;;;;;5015541;28;20297;-70
2020/12/27 04:53:55;;;;;;;5.75;2.38;;;0.50;99.90;;;;;;5015375;28;20207;-70
2020/12/27 04:56:25;;;;;;;4.78;2.92;;;0.40;99.90;;;;;;5014987;28;20225;-70
2020/12/27 04:58:53;;;;;;;2.92;2.58;;;0.20;99.90;;;;;;5015241;28;20200;-70
2020/12/27 05:01:20;;;;;;;2.25;1.92;;;0.10;99.90;;;;;;5014967;28;20210;-70
2020/12/27 05:03:46;;;;;;;4.05;2.40;;;0.10;99.90;;;;;;5015278;28;20631;-70
2020/12/27 05:06:15;;;;;;;4.10;2.10;;;0.00;99.90;;;;;;5015015;28;20560;-70
2020/12/27 05:08:43;;;;;;;3.35;2.15;;;-0.10;99.90;;;;;;5015112;28;20204;-70
2020/12/27 05:11:12;;;;;;;5.72;2.70;;;-0.20;99.90;;;;;;5015093;28;20212;-70
2020/12/27 05:13:39;;;;;;;3.67;1.92;;;-0.20;99.90;;;;;;5014300;28;20235;-70
2020/12/27 05:16:06;;;;;;;1.48;1.20;;;-0.30;99.90;;;;;;5014777;28;20228;-70
2020/12/27 05:18:32;;;;;;;5.32;2.53;;;-0.30;99.90;;;;;;5015145;28;20200;-70
2020/12/27 05:20:59;;;;;;;5.45;2.33;;;-0.10;99.90;;;;;;5014954;28;20215;-70
2020/12/27 05:23:26;;;;;;;2.25;1.58;;;-0.20;99.90;;;;;;5014798;28;20229;-70
2020/12/27 05:25:52;;;;;;;5.85;2.47;;;-0.20;99.90;;;;;;5014525;28;20224;-70
2020/12/27 05:28:19;;;;;;;3.20;1.60;;;-0.30;99.90;;;;;;5014837;28;20329;-70
2020/12/27 05:30:46;;;;;;;3.63;1.90;;;-0.40;99.90;;;;;;5014488;28;20213;-70
2020/12/27 05:33:14;;;;;;;2.25;2.05;;;-0.30;99.90;;;;;;5014660;28;20201;-70
2020/12/27 05:35:40;;;;;;;2.08;1.95;;;-0.40;99.90;;;;;;5014308;28;20231;-70
2020/12/27 05:38:08;;;;;;;3.47;1.95;;;-0.30;99.90;;;;;;5014670;28;20201;-70
2020/12/27 05:40:37;;;;;;;5.80;2.35;;;-0.20;99.90;;;;;;5014541;28;20579;-71
2020/12/27 05:43:12;;;;;;;2.97;1.85;;;-0.10;99.90;;;;;;5014423;28;20232;-70
2020/12/27 05:45:39;;;;;;;4.22;1.98;;;-0.10;99.90;;;;;;5013986;28;20725;-70
2020/12/27 05:48:05;;;;;;;5.25;2.55;;;-0.20;99.90;;;;;;5014196;28;20295;-70
2020/12/27 05:50:37;;;;;;;5.90;2.13;;;-0.20;99.90;;;;;;5014282;28;20209;-70
2020/12/27 05:53:15;;;;;;;4.15;2.38;;;-0.20;99.90;;;;;;5014373;28;20275;-71
2020/12/27 05:55:44;;;;;;;3.17;2.60;;;-0.10;99.90;;;;;;5013890;28;20711;-70
2020/12/27 05:58:16;;;;;;;4.40;2.60;;;-0.10;99.90;;;;;;5014089;28;20239;-70
2020/12/27 06:00:42;;;;;;;2.72;1.23;;;-0.10;99.90;;;;;;5014160;28;20713;-70
2020/12/27 06:03:18;;;;;;;3.10;1.90;;;0.00;99.90;;;;;;5014152;28;20304;-70
2020/12/27 06:06:08;;;;;;;4.07;2.22;;;0.00;99.90;;;;;;5013850;28;20224;-70
2020/12/27 06:09:04;;;;;;;3.42;1.85;;;0.00;99.90;;;;;;5014179;28;20212;-70
2020/12/27 06:11:45;;;;;;;3.30;1.90;;;0.10;99.90;;;;;;5008775;28;20205;-70
2020/12/27 06:14:39;;;;;;;4.07;2.50;;;0.10;99.90;;;;;;5014053;28;20575;-70
2020/12/27 06:17:11;;;;;;;2.42;1.40;;;0.10;99.90;;;;;;5006765;28;20662;-70
2020/12/27 06:20:01;;;;;;;3.45;1.55;;;0.10;99.90;;;;;;5014026;28;20287;-70
2020/12/27 06:22:32;;;;;;;5.65;1.98;;;0.20;99.90;;;;;;5008928;28;20224;-70
2020/12/27 06:25:00;;;;;;;3.05;1.70;;;0.20;99.90;;;;;;5013289;28;20208;-70
2020/12/27 06:27:28;;;;;;;4.22;2.40;;;0.20;99.90;;;;;;5014050;28;20649;-70
2020/12/27 06:30:01;;;;;;;4.80;1.65;;;0.20;99.90;;;;;;5013725;28;20224;-70
2020/12/27 06:32:33;;;;;;;2.63;1.55;;;0.30;99.90;;;;;;5013789;28;20201;-70
2020/12/27 06:35:04;;;;;;;2.45;2.03;;;0.40;99.90;;;;;;5013514;28;20663;-70
2020/12/27 06:37:43;;;;;;;4.03;2.15;;;0.40;99.90;;;;;;5013909;28;20193;-71
2020/12/27 06:40:10;;;;;;;6.63;2.20;;;0.50;99.90;;;;;;5013785;28;20205;-70
2020/12/27 06:42:36;;;;;;;1.83;1.40;;;0.50;99.90;;;;;;5013661;28;20229;-70
2020/12/27 06:45:04;;;;;;;3.00;2.28;;;0.60;99.90;;;;;;5013428;28;20253;-71
2020/12/27 06:47:48;;;;;;;1.77;1.67;;;0.70;99.90;;;;;;5013713;28;20215;-71
2020/12/27 06:50:16;;;;;;;2.67;1.55;;;0.80;99.90;;;;;;5013500;28;20259;-70
2020/12/27 06:52:43;;;;;;;2.60;1.65;;;0.90;99.90;;;;;;5013535;28;20719;-71
2020/12/27 06:55:09;;;;;;;5.28;2.95;;;0.90;99.90;;;;;;5013358;28;20225;-71
2020/12/27 06:57:44;;;;;;;7.00;2.05;;;1.00;99.90;;;;;;5013995;28;20567;-71
2020/12/27 07:00:24;;;;;;;3.30;1.90;;;1.00;99.90;;;;;;5013395;28;20211;-71
2020/12/27 07:03:09;;;;;;;2.88;2.33;;;1.00;99.90;;;;;;5013568;28;20228;-71
2020/12/27 07:05:36;;;;;;;2.13;1.92;;;1.10;99.90;;;;;;5013235;28;20311;-71
2020/12/27 07:08:05;;;;;;;4.03;2.53;;;1.10;99.90;;;;;;5013516;28;20209;-71
2020/12/27 07:10:33;;;;;;;3.03;1.88;;;1.10;99.90;;;;;;5013234;28;20663;-71
2020/12/27 07:13:04;;;;;;;2.67;1.60;;;1.00;99.90;;;;;;5013489;28;20207;-71
2020/12/27 07:15:31;;;;;;;5.40;2.15;;;0.90;99.90;;;;;;5013426;28;20234;-70
2020/12/27 07:18:06;;;;;;;7.07;2.25;;;0.70;99.90;;;;;;5013523;28;20215;-71
2020/12/27 07:20:33;;;;;;;7.22;2.90;;;0.70;99.90;;;;;;5013431;28;20201;-70
2020/12/27 07:23:00;;;;;;;6.10;2.30;;;0.90;99.90;;;;;;5013423;28;20235;-70
2020/12/27 07:25:29;;;;;;;5.35;2.42;;;0.80;99.90;;;;;;5012836;28;20221;-71
2020/12/27 07:27:58;;;;;;;2.05;1.48;;;0.90;99.90;;;;;;5013124;28;20697;-71
2020/12/27 07:30:27;;;;;;;2.58;1.70;;;0.80;99.90;;;;;;5013193;28;20579;-70
2020/12/27 07:32:53;;;;;;;2.67;1.85;;;0.80;99.90;;;;;;5013111;28;20201;-70
2020/12/27 07:35:23;;;;;;;8.95;2.28;;;0.90;99.90;;;;;;5012972;28;20227;-70
2020/12/27 07:38:00;;;;;;;4.70;2.50;;;0.80;99.90;;;;;;5014897;28;20267;-71
2020/12/27 07:40:32;;;;;;;4.00;2.10;;;0.70;99.90;;;;;;5016873;28;20216;-71
2020/12/27 07:43:00;;;;;;;4.43;1.95;;;0.80;99.90;;;;;;5016954;28;20316;-71
2020/12/27 07:45:27;;;;;;;3.05;1.73;;;0.80;99.90;;;;;;5016386;28;20335;-71
2020/12/27 07:47:53;;;;;;;2.60;1.58;;;0.80;99.90;;;;;;5016712;28;20299;-71
2020/12/27 07:50:22;;;;;;;3.05;2.17;;;0.90;99.90;;;;;;5016630;28;20204;-71
2020/12/27 07:52:50;;;;;;;3.42;2.33;;;0.90;99.90;;;;;;5016427;28;20713;-71
2020/12/27 07:55:25;;;;;;;1.55;1.45;;;1.00;99.90;;;;;;5016517;28;20225;-71
2020/12/27 07:57:52;;;;;;;5.50;2.60;;;1.10;99.90;;;;;;5016558;28;20581;-71
2020/12/27 08:00:23;;;;;;;4.82;2.25;;;1.20;99.90;;;;;;5016353;28;20659;-70
2020/12/27 08:02:51;;;;;;;3.58;2.00;;;1.30;99.90;;;;;;5016144;28;20231;-71
2020/12/27 08:05:18;;;;;;;2.47;1.38;;;1.20;99.90;;;;;;5016058;28;20228;-71
2020/12/27 08:07:44;;;;;;;2.67;2.05;;;1.30;99.90;;;;;;5016365;28;20205;-71
2020/12/27 08:10:24;;;;;;;2.30;2.10;;;1.30;99.90;;;;;;5016425;28;20215;-71
2020/12/27 08:12:54;;;;;;;2.63;2.28;;;1.00;99.90;;;;;;5016202;28;20327;-71
2020/12/27 08:15:21;;;;;;;5.88;2.40;;;1.00;99.90;;;;;;5015676;28;20717;-71
2020/12/27 08:17:59;;;;;;;3.83;2.30;;;1.20;99.90;;;;;;5015815;28;20671;-71
2020/12/27 08:20:26;;;;;;;2.17;1.33;;;1.30;99.90;;;;;;5016215;28;20567;-71
2020/12/27 08:23:00;;;;;;;2.38;1.60;;;1.40;99.90;;;;;;5015970;28;20251;-70
2020/12/27 08:25:28;;;;;;;4.22;2.42;;;1.40;99.90;;;;;;5015623;28;20710;-70
2020/12/27 08:27:56;;;;;;;4.15;2.58;;;1.50;99.90;;;;;;5015948;28;20208;-70
2020/12/27 08:30:23;;;;;;;7.47;3.83;;;1.40;99.90;;;;;;5015858;28;20227;-71
2020/12/27 08:33:05;;;;;;;36.47;13.48;;;1.50;99.90;;;;;;5015832;28;20201;-70
2020/12/27 08:35:31;;;;;;;20.55;8.57;;;1.60;99.90;;;;;;5015505;28;20319;-70
2020/12/27 08:38:07;;;;;;;10.55;4.60;;;1.70;99.90;;;;;;5015474;28;20208;-70
2020/12/27 08:40:39;;;;;;;3.42;2.20;;;1.80;99.90;;;;;;5016256;28;20208;-70
2020/12/27 08:43:19;;;;;;;3.80;2.25;;;1.90;99.90;;;;;;5015585;28;20293;-70
2020/12/27 08:45:56;;;;;;;3.63;2.15;;;1.90;99.90;;;;;;5015305;28;20274;-70
2020/12/27 08:48:29;;;;;;;2.80;2.20;;;2.00;99.90;;;;;;5015615;28;20185;-70
2020/12/27 08:50:57;;;;;;;3.38;1.92;;;2.00;99.90;;;;;;5015305;28;20205;-71
2020/12/27 08:53:24;;;;;;;2.90;1.98;;;2.00;99.90;;;;;;5015452;28;20197;-70
2020/12/27 08:55:50;;;;;;;2.88;1.92;;;2.00;99.90;;;;;;5015073;28;20564;-70
2020/12/27 08:58:17;;;;;;;2.22;1.75;;;2.10;99.90;;;;;;5015425;28;20211;-70
2020/12/27 09:00:47;;;;;;;6.18;2.25;;;2.00;99.90;;;;;;5015247;28;20207;-70
2020/12/27 09:03:14;;;;;;;4.75;1.98;;;2.00;99.90;;;;;;5015233;28;20228;-70
2020/12/27 09:05:40;;;;;;;2.55;2.00;;;2.00;99.90;;;;;;5015185;28;20233;-70
2020/12/27 09:08:14;;;;;;;1.77;1.65;;;2.00;99.90;;;;;;5015256;28;20295;-71
2020/12/27 09:10:41;;;;;;;3.13;2.05;;;2.10;99.90;;;;;;5015087;28;20656;-70
2020/12/27 09:13:08;;;;;;;5.82;1.90;;;2.10;99.90;;;;;;5015078;28;20609;-71
2020/12/27 09:15:37;;;;;;;2.00;1.80;;;2.20;99.90;;;;;;5014551;28;20224;-71
2020/12/27 09:18:05;;;;;;;2.40;2.13;;;2.20;99.90;;;;;;5015004;28;20208;-71
2020/12/27 09:20:33;;;;;;;3.38;2.42;;;2.30;99.00;;;;;;5014761;28;20705;-71
2020/12/27 09:23:00;;;;;;;3.47;1.83;;;2.30;98.50;;;;;;5014799;28;20565;-70
2020/12/27 09:25:27;;;;;;;2.25;2.08;;;2.40;98.40;;;;;;5014502;28;20639;-70
2020/12/27 09:27:54;;;;;;;2.85;1.58;;;2.40;98.00;;;;;;5014787;28;20204;-70
2020/12/27 09:30:22;;;;;;;2.60;1.63;;;2.50;97.80;;;;;;5014650;28;20223;-71
2020/12/27 09:32:50;;;;;;;2.35;1.55;;;2.50;97.60;;;;;;5014722;28;20563;-71
2020/12/27 09:35:20;;;;;;;2.90;1.50;;;2.60;97.60;;;;;;5014448;28;20225;-71
2020/12/27 09:37:47;;;;;;;3.40;1.65;;;2.80;98.30;;;;;;5014731;28;20205;-70
2020/12/27 09:40:16;;;;;;;5.45;2.13;;;2.80;98.20;;;;;;5014574;28;20555;-70
2020/12/27 09:42:42;;;;;;;3.80;2.13;;;2.90;98.50;;;;;;5014483;28;20228;-70
2020/12/27 09:45:19;;;;;;;3.22;2.83;;;3.00;98.80;;;;;;5014284;28;20200;-71
2020/12/27 09:47:55;;;;;;;4.82;1.98;;;3.00;98.40;;;;;;5014457;28;20205;-71
2020/12/27 09:50:26;;;;;;;2.85;2.03;;;3.00;97.80;;;;;;5014603;28;20262;-70
2020/12/27 09:52:53;;;;;;;4.50;2.75;;;3.00;97.80;;;;;;5014304;28;20283;-70
2020/12/27 09:55:19;;;;;;;3.00;1.85;;;2.90;97.60;;;;;;5014185;28;20239;-70
2020/12/27 09:57:45;;;;;;;3.42;1.98;;;2.80;97.80;;;;;;5014324;28;20344;-70
2020/12/27 10:00:12;;;;;;;2.53;2.10;;;2.90;98.40;;;;;;5013903;28;20205;-71
2020/12/27 10:02:38;;;;;;;3.35;2.05;;;2.90;98.10;;;;;;5014029;28;20221;-71
2020/12/27 10:05:06;;;;;;;3.22;2.03;;;3.00;98.60;;;;;;5014195;28;20200;-71
2020/12/27 10:07:32;;;;;;;2.10;1.90;;;3.20;98.70;;;;;;5014124;28;20205;-70
2020/12/27 10:09:59;;;;;;;4.18;2.80;;;3.20;97.60;;;;;;5014140;28;20209;-70
2020/12/27 10:12:25;;;;;;;3.22;2.45;;;3.20;96.80;;;;;;5014091;28;20287;-71
2020/12/27 10:14:51;;;;;;;4.45;2.58;;;3.10;96.80;;;;;;5013750;28;20688;-70
2020/12/27 10:17:18;;;;;;;3.95;2.45;;;3.10;96.80;;;;;;5014055;28;20200;-71
2020/12/27 10:19:44;;;;;;;5.07;2.45;;;3.30;97.80;;;;;;5013745;28;20290;-71
2020/12/27 10:22:11;;;;;;;4.50;2.22;;;3.20;97.00;;;;;;5013594;28;20220;-70
2020/12/27 10:24:38;;;;;;;4.38;2.97;;;3.30;97.60;;;;;;5013825;28;20207;-70
2020/12/27 10:27:06;;;;;;;7.93;3.13;;;3.40;97.50;;;;;;5013906;28;20586;-70
2020/12/27 10:29:33;;;;;;;3.58;2.00;;;3.50;97.60;;;;;;5013885;28;20208;-71
2020/12/27 10:32:01;;;;;;;4.45;2.70;;;3.60;96.40;;;;;;5013864;28;20553;-70
2020/12/27 10:34:28;;;;;;;5.82;2.80;;;3.50;94.70;;;;;;5013779;28;20566;-71
2020/12/27 10:36:56;;;;;;;4.45;3.53;;;3.50;95.30;;;;;;5013718;28;20315;-70
2020/12/27 10:39:24;;;;;;;8.20;3.72;;;3.50;96.30;;;;;;5013781;28;20299;-71
2020/12/27 10:41:52;;;;;;;7.25;4.47;;;3.60;97.10;;;;;;5013638;28;20654;-71
2020/12/27 10:44:18;;;;;;;5.47;3.78;;;3.60;97.60;;;;;;5013922;28;20203;-70
2020/12/27 10:46:45;;;;;;;5.85;3.28;;;3.70;97.90;;;;;;5013505;28;20303;-71
2020/12/27 10:49:12;;;;;;;9.07;4.43;;;3.70;97.70;;;;;;5013666;28;20295;-70
2020/12/27 10:51:39;;;;;;;11.95;4.78;;;3.80;97.50;;;;;;5013709;28;20204;-71
2020/12/27 10:54:06;;;;;;;8.07;4.70;;;3.90;97.40;;;;;;5013510;28;20215;-71
2020/12/27 10:56:34;;;;;;;6.38;4.30;;;4.00;97.10;;;;;;5013137;28;20221;-71
2020/12/27 10:59:01;;;;;;;7.95;4.10;;;4.00;97.10;;;;;;5013689;28;20211;-70
2020/12/27 11:01:27;;;;;;;9.52;4.50;;;4.00;97.40;;;;;;5013598;28;20339;-71
2020/12/27 11:03:54;;;;;;;9.32;4.78;;;4.00;97.50;;;;;;5013543;28;20230;-70
2020/12/27 11:06:28;;;;;;;7.55;4.85;;;4.10;97.60;;;;;;5013357;28;20225;-71
2020/12/27 11:08:54;;;;;;;8.50;4.72;;;4.10;97.60;;;;;;5013401;28;20741;-70
2020/12/27 11:11:21;;;;;;;8.32;4.32;;;4.10;97.20;;;;;;5013492;28;20209;-70
2020/12/27 11:13:48;;;;;;;6.45;4.20;;;4.10;97.30;;;;;;5016705;28;20235;-70
2020/12/27 11:16:15;;;;;;;11.10;5.95;;;4.00;97.40;;;;;;5017144;28;20236;-71
2020/12/27 11:18:41;;;;;;;8.07;5.22;;;4.00;97.40;;;;;;5017246;28;20209;-70
2020/12/27 11:21:07;;;;;;;9.40;5.85;;;4.00;97.60;;;;;;5017022;28;20702;-70
2020/12/27 11:23:34;;;;;;;10.43;4.90;;;3.90;97.60;;;;;;5017053;28;20229;-70
2020/12/27 11:26:00;;;;;;;8.07;4.97;;;4.00;97.50;;;;;;5016716;28;20227;-70
2020/12/27 11:28:26;;;;;;;8.48;5.13;;;3.90;97.30;;;;;;5017160;28;20636;-70
2020/12/27 11:30:53;;;;;;;18.00;5.70;;;3.80;97.90;;;;;;5016702;28;20299;-70
2020/12/27 11:33:20;;;;;;;9.00;4.72;;;3.90;98.50;;;;;;5017036;28;20566;-71
2020/12/27 11:35:46;;;;;;;8.55;4.63;;;4.00;98.50;;;;;;5016533;28;20235;-70
2020/12/27 11:38:12;;;;;;;7.63;5.05;;;4.00;98.50;;;;;;5016973;28;20683;-70
2020/12/27 11:40:39;;;;;;;8.30;5.30;;;4.00;98.10;;;;;;5016839;28;20220;-70
2020/12/27 11:43:05;;;;;;;7.25;5.10;;;4.10;98.20;;;;;;5016706;28;20231;-70
2020/12/27 11:45:31;;;;;;;6.95;4.38;;;4.10;98.00;;;;;;5016534;28;20315;-70
2020/12/27 11:47:59;;;;;;;9.93;4.93;;;3.90;97.50;;;;;;5016729;28;20591;-70
2020/12/27 11:50:25;;;;;;;10.23;4.30;;;3.90;97.80;;;;;;5016660;28;20291;-70
2020/12/27 11:52:51;;;;;;;6.55;4.05;;;3.80;98.00;;;;;;5016469;28;20292;-70
2020/12/27 11:55:17;;;;;;;8.52;5.28;;;3.70;98.00;;;;;;5016179;28;20352;-71
2020/12/27 11:57:44;;;;;;;8.55;5.15;;;3.70;99.00;;;;;;5016466;28;20207;-70
2020/12/27 12:00:10;;;;;;;7.70;4.80;;;3.70;99.10;;;;;;5016212;28;20296;-70
2020/12/27 12:02:36;;;;;;;9.60;4.25;;;3.80;99.40;;;;;;5016381;28;20251;-71
2020/12/27 12:05:04;;;;;;;7.38;4.80;;;3.90;99.10;;;;;;5016166;28;20209;-71
2020/12/27 12:07:30;;;;;;;9.55;4.60;;;3.90;99.10;;;;;;5016126;28;20299;-70
2020/12/27 12:09:56;;;;;;;7.20;4.28;;;4.00;99.20;;;;;;5016302;28;20295;-70
2020/12/27 12:12:23;;;;;;;8.75;4.25;;;3.70;98.20;;;;;;5016173;28;20287;-70
2020/12/27 12:14:49;;;;;;;5.70;4.28;;;3.70;98.90;;;;;;5016020;28;20295;-70
2020/12/27 12:17:15;;;;;;;6.28;4.07;;;3.70;99.30;;;;;;5015856;28;20221;-70
2020/12/27 12:19:41;;;;;;;6.68;3.60;;;3.80;99.50;;;;;;5016393;28;20237;-70
2020/12/27 12:22:09;;;;;;;7.30;4.60;;;3.90;98.80;;;;;;5016002;28;20308;-70
2020/12/27 12:24:35;;;;;;;7.90;3.78;;;3.90;99.20;;;;;;5015543;28;20632;-71
2020/12/27 12:27:01;;;;;;;5.13;3.85;;;4.00;98.90;;;;;;5015900;28;20331;-70
2020/12/27 12:29:27;;;;;;;4.20;3.38;;;4.00;98.60;;;;;;5015989;28;20311;-70
2020/12/27 12:31:54;;;;;;;6.40;4.35;;;4.00;99.50;;;;;;5015815;28;20220;-70
2020/12/27 12:34:20;;;;;;;5.85;3.97;;;4.10;99.40;;;;;;5015863;28;20292;-70
2020/12/27 12:36:49;;;;;;;5.13;4.13;;;4.00;99.30;;;;;;5015348;28;20782;-70
2020/12/27 12:39:16;;;;;;;5.32;3.47;;;4.10;99.60;;;;;;5015776;28;20574;-70
2020/12/27 12:41:42;;;;;;;6.50;4.10;;;4.10;99.40;;;;;;5015512;28;20742;-70
2020/12/27 12:44:09;;;;;;;5.55;4.47;;;4.20;99.50;;;;;;5015632;28;20320;-70
2020/12/27 12:46:35;;;;;;;6.53;4.53;;;4.20;98.80;;;;;;5015680;28;20227;-70
2020/12/27 12:49:01;;;;;;;6.43;4.05;;;4.20;98.70;;;;;;5015579;28;20579;-70
2020/12/27 12:51:28;;;;;;;5.97;4.13;;;4.20;98.80;;;;;;5015685;28;20296;-70
2020/12/27 12:53:54;;;;;;;6.18;4.28;;;4.20;99.60;;;;;;5015385;28;20207;-71
2020/12/27 12:56:21;;;;;;;4.75;3.33;;;4.30;99.40;;;;;;5015032;28;20315;-70
2020/12/27 12:58:47;;;;;;;6.05;4.38;;;4.20;99.30;;;;;;5015099;28;20207;-70
2020/12/27 13:01:14;;;;;;;5.03;3.20;;;4.10;99.20;;;;;;5015254;28;20317;-70